Time;durP1;ratioP1;P1;durP2;ratioP2;P2;SDS_P1;SDS_P2;PMS_P1;PMS_P2;Temp;Humidity;BMP_temperature;BMP_pressure;BME280_temperature;BME280_humidity;BME280_pressure;Samples;Min_cycle;Max_cycle;Signal;HPM_P1;HPM_P2
2024/03/07 00:00:17;;;;;;;28.77;26.98;;;;;;;5.35;100.00;101276.06;5022105;28;20073;-70
2024/03/07 00:02:47;;;;;;;28.10;26.40;;;;;;;5.27;100.00;101273.41;5026911;28;20778;-70
2024/03/07 00:05:15;;;;;;;29.27;27.38;;;;;;;5.31;100.00;101280.00;5023840;28;20136;-70
2024/03/07 00:07:43;;;;;;;29.42;27.52;;;;;;;5.30;100.00;101264.38;5025195;28;20055;-70
2024/03/07 00:10:11;;;;;;;30.33;28.63;;;;;;;5.24;100.00;101268.47;5026535;28;20045;-70
2024/03/07 00:12:38;;;;;;;40.90;38.47;;;;;;;5.23;100.00;101272.91;5016145;28;21411;-69
2024/03/07 00:15:07;;;;;;;32.85;30.98;;;;;;;5.28;100.00;101269.78;5024572;28;20061;-69
2024/03/07 00:17:34;;;;;;;31.02;29.02;;;;;;;5.14;100.00;101265.91;5024961;28;20431;-69
2024/03/07 00:20:04;;;;;;;34.97;32.95;;;;;;;5.13;100.00;101268.72;5023808;28;20053;-69
2024/03/07 00:22:31;;;;;;;34.28;32.38;;;;;;;5.17;100.00;101270.06;5027827;28;20479;-69
2024/03/07 00:24:59;;;;;;;33.10;30.80;;;;;;;5.18;100.00;101261.19;5025818;28;20058;-69
2024/03/07 00:27:26;;;;;;;34.65;32.58;;;;;;;5.19;100.00;101258.38;5028231;28;20056;-71
2024/03/07 00:29:53;;;;;;;33.88;31.77;;;;;;;5.18;100.00;101272.53;5029005;28;20453;-71
2024/03/07 00:32:20;;;;;;;34.08;32.08;;;;;;;5.16;100.00;101261.31;5028541;28;21086;-71
2024/03/07 00:34:48;;;;;;;32.53;30.00;;;;;;;5.17;100.00;101256.88;5029351;28;20743;-71
2024/03/07 00:37:17;;;;;;;33.17;30.98;;;;;;;5.19;100.00;101253.13;5025559;28;20046;-71
2024/03/07 00:39:44;;;;;;;31.63;29.73;;;;;;;5.18;100.00;101251.47;5029109;28;20948;-71
2024/03/07 00:42:11;;;;;;;32.97;30.90;;;;;;;5.19;100.00;101244.41;5025728;28;20061;-71
2024/03/07 00:44:38;;;;;;;37.22;35.13;;;;;;;5.15;100.00;101248.34;5027988;28;20053;-71
2024/03/07 00:47:05;;;;;;;31.00;29.20;;;;;;;5.16;100.00;101240.25;5028823;28;20076;-71
2024/03/07 00:49:32;;;;;;;29.65;27.65;;;;;;;5.13;100.00;101243.22;5025332;28;20136;-69
2024/03/07 00:52:00;;;;;;;35.90;33.80;;;;;;;5.17;100.00;101241.06;5033408;28;20425;-71
2024/03/07 00:54:29;;;;;;;56.25;53.28;;;;;;;5.09;100.00;101241.06;5026999;28;20072;-71
2024/03/07 00:56:56;;;;;;;48.00;45.47;;;;;;;4.96;100.00;101239.69;5019194;28;20061;-71
2024/03/07 00:59:23;;;;;;;50.63;47.83;;;;;;;4.81;100.00;101236.81;5021361;28;20145;-70
2024/03/07 01:01:50;;;;;;;42.33;40.03;;;;;;;4.75;100.00;101234.78;5021576;28;20049;-71
2024/03/07 01:04:19;;;;;;;42.13;39.83;;;;;;;4.75;100.00;101226.91;5027238;28;20057;-69
2024/03/07 01:06:46;;;;;;;50.35;47.58;;;;;;;4.74;100.00;101229.66;5024858;28;20493;-69
2024/03/07 01:09:16;;;;;;;50.00;47.20;;;;;;;4.73;100.00;101226.22;5024636;28;20599;-69
2024/03/07 01:11:45;;;;;;;53.63;49.30;;;;;;;4.70;100.00;101231.78;5027393;28;20104;-70
2024/03/07 01:14:13;;;;;;;46.30;43.80;;;;;;;4.73;100.00;101230.66;5022836;28;20566;-71
2024/03/07 01:16:40;;;;;;;52.60;49.30;;;;;;;4.83;100.00;101224.28;5026682;28;20060;-70
2024/03/07 01:19:08;;;;;;;53.67;50.47;;;;;;;4.84;100.00;101240.91;5028176;28;20524;-70
2024/03/07 01:21:35;;;;;;;52.88;49.92;;;;;;;4.77;100.00;101238.06;5025059;28;20053;-71
2024/03/07 01:24:08;;;;;;;55.97;52.85;;;;;;;4.82;100.00;101237.63;5027281;28;20136;-71
2024/03/07 01:26:41;;;;;;;61.97;58.47;;;;;;;4.87;100.00;101242.41;5023554;28;20053;-71
2024/03/07 01:29:09;;;;;;;65.80;62.28;;;;;;;4.79;100.00;101238.75;5028210;28;20445;-71
2024/03/07 01:31:36;;;;;;;61.15;57.85;;;;;;;4.80;100.00;101243.03;5027499;28;20057;-71
2024/03/07 01:34:03;;;;;;;64.45;60.65;;;;;;;4.76;100.00;101239.06;5025855;28;20056;-69
2024/03/07 01:36:30;;;;;;;72.22;68.22;;;;;;;4.73;100.00;101235.91;5026965;28;20524;-70
2024/03/07 01:38:56;;;;;;;73.47;69.45;;;;;;;4.79;100.00;101235.28;5027350;28;20045;-71
2024/03/07 01:41:24;;;;;;;64.07;60.47;;;;;;;4.75;100.00;101234.78;5027679;28;20068;-71
2024/03/07 01:43:51;;;;;;;53.75;50.75;;;;;;;4.77;100.00;101237.25;5030806;28;20056;-70
2024/03/07 01:46:19;;;;;;;60.13;56.83;;;;;;;4.76;100.00;101239.06;5032303;28;20501;-71
2024/03/07 01:48:46;;;;;;;57.83;54.53;;;;;;;4.81;100.00;101243.84;5031900;28;20072;-71
2024/03/07 01:51:13;;;;;;;53.28;50.17;;;;;;;4.77;100.00;101243.34;5028364;28;20155;-71
2024/03/07 01:53:40;;;;;;;30.20;27.98;;;;;;;4.67;100.00;101245.25;5021547;28;20058;-71
2024/03/07 01:56:08;;;;;;;28.63;26.83;;;;;;;4.62;100.00;101251.94;5024398;28;20528;-69
2024/03/07 01:58:37;;;;;;;35.97;33.58;;;;;;;4.65;100.00;101246.38;5035054;28;20642;-71
2024/03/07 02:01:04;;;;;;;37.75;35.13;;;;;;;4.62;100.00;101244.06;5027707;28;20537;-71
2024/03/07 02:03:33;;;;;;;32.10;29.95;;;;;;;4.52;100.00;101238.91;5028690;28;20533;-71
2024/03/07 02:06:00;;;;;;;33.13;31.10;;;;;;;4.44;100.00;101244.09;5030642;28;20510;-71
2024/03/07 02:08:27;;;;;;;38.70;36.42;;;;;;;4.35;100.00;101232.69;5027774;28;20049;-71
2024/03/07 02:10:54;;;;;;;32.15;30.25;;;;;;;4.25;100.00;101240.66;5031388;28;20037;-71
2024/03/07 02:13:21;;;;;;;32.42;30.42;;;;;;;4.21;100.00;101239.31;5021335;28;20045;-71
2024/03/07 02:15:51;;;;;;;36.17;33.58;;;;;;;4.29;100.00;101249.06;5030367;28;20737;-71
2024/03/07 02:18:18;;;;;;;35.25;32.85;;;;;;;4.36;100.00;101248.31;5021692;28;20421;-71
2024/03/07 02:20:48;;;;;;;29.52;27.73;;;;;;;4.34;100.00;101250.25;5030339;28;20053;-71
2024/03/07 02:23:15;;;;;;;30.30;28.40;;;;;;;4.32;100.00;101249.59;5023992;28;20069;-71
2024/03/07 02:25:41;;;;;;;31.48;29.58;;;;;;;4.21;100.00;101246.38;5028996;28;20054;-71
2024/03/07 02:28:08;;;;;;;31.45;29.60;;;;;;;4.26;100.00;101239.66;5029080;28;20563;-71
2024/03/07 02:30:36;;;;;;;34.03;32.03;;;;;;;4.27;100.00;101236.09;5031037;28;20412;-71
2024/03/07 02:33:07;;;;;;;29.30;27.50;;;;;;;4.32;100.00;101239.06;5027290;28;20053;-71
2024/03/07 02:35:35;;;;;;;29.73;27.73;;;;;;;4.31;100.00;101242.69;5030764;28;20054;-71
2024/03/07 02:38:04;;;;;;;34.60;32.70;;;;;;;4.35;100.00;101249.28;5026027;28;20096;-71
2024/03/07 02:40:31;;;;;;;35.42;33.05;;;;;;;4.36;100.00;101247.50;5023519;28;20057;-71
2024/03/07 02:42:59;;;;;;;29.40;27.60;;;;;;;4.31;100.00;101247.94;5031386;28;20060;-71
2024/03/07 02:45:27;;;;;;;27.33;25.58;;;;;;;4.32;100.00;101254.84;5028371;28;20523;-71
2024/03/07 02:47:54;;;;;;;29.33;27.52;;;;;;;4.33;100.00;101246.00;5030613;28;20124;-71
2024/03/07 02:50:22;;;;;;;31.15;29.27;;;;;;;4.36;100.00;101248.31;5026762;28;20045;-71
2024/03/07 02:52:52;;;;;;;27.95;26.13;;;;;;;4.33;100.00;101247.81;5028379;28;20484;-71
2024/03/07 02:55:20;;;;;;;27.90;25.92;;;;;;;4.23;100.00;101247.88;5025683;28;20099;-71
2024/03/07 02:57:47;;;;;;;28.33;26.52;;;;;;;4.24;100.00;101246.91;5037749;28;20068;-71
2024/03/07 03:00:20;;;;;;;32.88;29.02;;;;;;;4.22;100.00;101248.84;5022679;28;20054;-70
2024/03/07 03:02:47;;;;;;;;;;;;;;;4.22;100.00;101255.91;5030189;28;20107;-71
2024/03/07 03:05:15;;;;;;;30.98;29.15;;;;;;;4.24;100.00;101261.88;5029200;28;20345;-71
2024/03/07 03:07:52;;;;;;;30.95;29.08;;;;;;;4.16;100.00;101261.78;5027456;28;20049;-71
2024/03/07 03:10:24;;;;;;;33.05;31.25;;;;;;;4.19;100.00;101259.66;5028596;28;20674;-71
2024/03/07 03:12:51;;;;;;;30.98;29.17;;;;;;;4.20;100.00;101261.31;5031106;28;20064;-69
2024/03/07 03:15:20;;;;;;;25.13;23.63;;;;;;;4.23;100.00;101252.31;5027332;28;20049;-69
2024/03/07 03:17:47;;;;;;;29.90;28.20;;;;;;;4.27;100.00;101256.31;5027170;28;20049;-69
2024/03/07 03:20:24;;;;;;;35.00;33.10;;;;;;;4.37;100.00;101251.78;5027600;28;20140;-69
2024/03/07 03:22:52;;;;;;;33.25;31.33;;;;;;;4.31;100.00;101241.84;5029191;28;20050;-69
2024/03/07 03:25:21;;;;;;;27.80;26.10;;;;;;;4.41;100.00;101239.13;5028501;28;20095;-71
2024/03/07 03:27:48;;;;;;;29.98;28.33;;;;;;;4.41;100.00;101244.41;5027747;28;20505;-71
2024/03/07 03:30:18;;;;;;;33.72;31.73;;;;;;;4.39;100.00;101241.09;5028912;28;20144;-71
2024/03/07 03:32:46;;;;;;;35.90;29.45;;;;;;;4.35;100.00;101241.38;5027469;28;20055;-71
2024/03/07 03:35:14;;;;;;;30.92;29.02;;;;;;;4.30;100.00;101241.03;5028088;28;20053;-70
2024/03/07 03:37:42;;;;;;;29.75;28.05;;;;;;;4.25;100.00;101234.56;5027876;28;20448;-70
2024/03/07 03:40:10;;;;;;;29.15;27.30;;;;;;;4.21;100.00;101241.94;5027196;28;20319;-69
2024/03/07 03:42:40;;;;;;;36.40;34.60;;;;;;;4.21;100.00;101249.00;5026064;28;20053;-71
2024/03/07 03:45:09;;;;;;;30.85;29.15;;;;;;;4.17;100.00;101245.03;5027572;28;20068;-69
2024/03/07 03:47:36;;;;;;;28.50;26.90;;;;;;;4.06;100.00;101241.66;5028725;28;20054;-71
2024/03/07 03:50:05;;;;;;;27.45;25.95;;;;;;;4.01;100.00;101243.91;5027136;28;20433;-71
2024/03/07 03:52:32;;;;;;;35.75;33.75;;;;;;;3.94;100.00;101253.38;5017110;28;20052;-71
2024/03/07 03:54:59;;;;;;;33.95;32.03;;;;;;;3.88;100.00;101246.91;5028857;28;20046;-71
2024/03/07 03:57:26;;;;;;;30.90;29.02;;;;;;;3.87;100.00;101244.41;5023754;28;20103;-71
2024/03/07 03:59:54;;;;;;;36.78;34.97;;;;;;;3.78;100.00;101251.41;5027812;28;20483;-70
2024/03/07 04:02:21;;;;;;;31.92;30.23;;;;;;;3.77;100.00;101256.78;5021955;28;20049;-71
2024/03/07 04:04:49;;;;;;;26.50;25.00;;;;;;;3.71;100.00;101260.00;5027789;28;20049;-71
2024/03/07 04:07:16;;;;;;;26.52;24.92;;;;;;;3.67;100.00;101262.13;5021901;28;20045;-71
2024/03/07 04:09:43;;;;;;;30.08;28.30;;;;;;;3.58;100.00;101261.19;5029276;28;20134;-71
2024/03/07 04:12:16;;;;;;;28.67;26.98;;;;;;;3.54;100.00;101251.13;5028590;28;20049;-71
2024/03/07 04:14:44;;;;;;;26.60;25.10;;;;;;;3.43;100.00;101257.41;5029624;28;20054;-71
2024/03/07 04:17:12;;;;;;;26.00;24.45;;;;;;;3.40;100.00;101250.63;5029340;28;20706;-71
2024/03/07 04:19:41;;;;;;;44.40;42.00;;;;;;;3.28;100.00;101259.69;5024282;28;20488;-71
2024/03/07 04:22:09;;;;;;;46.65;43.70;;;;;;;3.31;100.00;101266.44;5028086;28;20041;-71
2024/03/07 04:24:36;;;;;;;45.38;42.85;;;;;;;3.20;100.00;101270.88;5026629;28;20090;-71
2024/03/07 04:27:04;;;;;;;48.42;45.80;;;;;;;3.23;100.00;101275.03;5027082;28;20050;-71
2024/03/07 04:29:31;;;;;;;48.72;45.08;;;;;;;3.16;100.00;101271.34;5025646;28;20049;-71
2024/03/07 04:31:58;;;;;;;41.90;39.60;;;;;;;3.13;100.00;101277.69;5029413;28;20048;-71
2024/03/07 04:34:27;;;;;;;27.10;25.60;;;;;;;3.07;100.00;101280.91;5028353;28;20057;-69
2024/03/07 04:36:54;;;;;;;27.88;26.15;;;;;;;3.05;100.00;101285.44;5029106;28;20057;-69
2024/03/07 04:39:27;;;;;;;32.47;30.05;;;;;;;3.14;100.00;101276.72;5023636;28;20049;-69
2024/03/07 04:41:54;;;;;;;37.08;34.15;;;;;;;3.07;100.00;101282.69;5021577;28;20525;-71
2024/03/07 04:44:22;;;;;;;33.30;31.10;;;;;;;3.13;100.00;101274.25;5020623;28;20057;-71
2024/03/07 04:46:55;;;;;;;36.60;34.15;;;;;;;3.19;100.00;101268.44;5029336;28;20112;-71
2024/03/07 04:49:23;;;;;;;37.75;35.55;;;;;;;3.25;100.00;101270.47;5027476;28;20068;-71
2024/03/07 04:51:51;;;;;;;33.22;31.00;;;;;;;3.35;100.00;101267.81;5030858;28;20046;-71
2024/03/07 04:54:19;;;;;;;28.20;26.27;;;;;;;3.32;100.00;101268.91;5028906;28;20493;-71
2024/03/07 04:56:46;;;;;;;29.55;27.85;;;;;;;3.35;100.00;101270.44;5028008;28;20053;-71
2024/03/07 04:59:13;;;;;;;33.22;31.10;;;;;;;3.46;100.00;101270.25;5027692;28;20056;-71
2024/03/07 05:01:40;;;;;;;30.10;28.17;;;;;;;3.54;100.00;101269.50;5025392;28;20095;-71
2024/03/07 05:04:07;;;;;;;58.75;54.65;;;;;;;3.66;100.00;101277.06;5026707;28;20050;-71
2024/03/07 05:06:34;;;;;;;37.67;34.33;;;;;;;3.65;100.00;101271.94;5028653;28;20049;-71
2024/03/07 05:09:21;;;;;;;27.73;25.02;;;;;;;3.81;100.00;101273.91;5026358;28;20199;-71
2024/03/07 05:11:48;;;;;;;44.33;40.33;;;;;;;3.84;100.00;101271.84;5024180;28;20049;-71
2024/03/07 05:14:16;;;;;;;50.72;46.22;;;;;;;3.95;100.00;101272.59;5027876;28;20391;-71
2024/03/07 05:16:43;;;;;;;56.63;50.92;;;;;;;4.11;100.00;101270.09;5034454;28;20104;-71
2024/03/07 05:19:10;;;;;;;34.92;32.83;;;;;;;4.20;100.00;101265.75;5032164;28;20049;-71
2024/03/07 05:21:40;;;;;;;33.88;31.60;;;;;;;4.27;100.00;101264.19;5031294;28;20053;-71
2024/03/07 05:24:09;;;;;;;32.92;31.13;;;;;;;4.33;100.00;101267.03;5031504;28;20041;-71
2024/03/07 05:26:38;;;;;;;35.90;33.85;;;;;;;4.42;100.00;101259.19;5031163;28;20622;-72
2024/03/07 05:29:07;;;;;;;27.15;24.85;;;;;;;4.43;100.00;101258.22;5026916;28;20058;-71
2024/03/07 05:31:35;;;;;;;27.10;25.48;;;;;;;4.60;100.00;101260.00;5036371;28;20132;-71
2024/03/07 05:34:03;;;;;;;26.83;25.13;;;;;;;4.65;100.00;101262.16;5032499;28;20103;-71
2024/03/07 05:36:31;;;;;;;26.45;24.85;;;;;;;4.66;100.00;101264.66;5030073;28;20533;-69
2024/03/07 05:38:59;;;;;;;28.13;26.05;;;;;;;4.71;100.00;101277.34;5030095;28;20122;-69
2024/03/07 05:41:29;;;;;;;30.77;28.92;;;;;;;4.69;100.00;101274.88;5026953;28;20050;-70
2024/03/07 05:43:56;;;;;;;25.35;23.67;;;;;;;4.96;100.00;101275.69;5024432;28;20138;-69
2024/03/07 05:46:23;;;;;;;26.65;24.85;;;;;;;4.82;100.00;101277.91;5029859;28;20049;-71
2024/03/07 05:48:52;;;;;;;27.75;25.92;;;;;;;4.89;100.00;101277.31;5028337;28;20052;-71
2024/03/07 05:51:19;;;;;;;29.27;27.33;;;;;;;4.90;100.00;101277.16;5029711;28;20429;-70
2024/03/07 05:53:46;;;;;;;26.67;25.17;;;;;;;5.02;100.00;101275.06;5031446;28;20759;-71
2024/03/07 05:56:14;;;;;;;29.13;27.42;;;;;;;5.03;100.00;101274.94;5027864;28;20042;-68
2024/03/07 05:58:42;;;;;;;26.83;25.23;;;;;;;5.05;100.00;101280.88;5032694;28;20132;-71
2024/03/07 06:01:11;;;;;;;25.65;24.05;;;;;;;5.21;100.00;101276.66;5024428;28;21003;-71
2024/03/07 06:03:39;;;;;;;28.73;27.08;;;;;;;5.15;100.00;101275.50;5026224;28;20052;-70
2024/03/07 06:06:10;;;;;;;30.17;28.40;;;;;;;5.32;100.00;101279.00;5030672;28;20061;-69
2024/03/07 06:08:38;;;;;;;27.38;25.77;;;;;;;5.40;100.00;101286.13;5029867;28;20065;-71
2024/03/07 06:11:05;;;;;;;29.80;27.67;;;;;;;5.44;100.00;101283.00;5030513;28;20061;-69
2024/03/07 06:13:32;;;;;;;27.80;26.08;;;;;;;5.61;100.00;101297.09;5031310;28;20052;-71
2024/03/07 06:16:05;;;;;;;30.98;29.23;;;;;;;5.66;100.00;101286.09;5030989;28;20049;-71
2024/03/07 06:18:32;;;;;;;32.10;30.15;;;;;;;6.39;100.00;101288.88;5026759;28;20057;-71
2024/03/07 06:20:59;;;;;;;33.33;31.13;;;;;;;5.84;100.00;101284.16;5027566;28;20061;-70
2024/03/07 06:23:28;;;;;;;30.15;28.35;;;;;;;5.79;100.00;101291.72;5028984;28;20053;-70
2024/03/07 06:25:58;;;;;;;34.75;32.55;;;;;;;5.76;100.00;101288.59;5020184;28;20143;-70
2024/03/07 06:28:28;;;;;;;32.60;30.60;;;;;;;6.18;100.00;101296.44;5015370;28;21462;-69
2024/03/07 06:30:55;;;;;;;32.30;30.30;;;;;;;5.65;100.00;101300.22;5024719;28;20123;-70
2024/03/07 06:33:25;;;;;;;32.92;30.98;;;;;;;5.67;100.00;101303.53;5025197;28;20041;-69
2024/03/07 06:35:52;;;;;;;30.75;28.98;;;;;;;5.53;100.00;101299.69;5024693;28;20077;-69
2024/03/07 06:38:19;;;;;;;29.15;26.90;;;;;;;5.64;100.00;101302.03;5022371;28;20045;-69
2024/03/07 06:40:46;;;;;;;30.60;28.80;;;;;;;5.72;100.00;101302.09;5024563;28;20132;-70
2024/03/07 06:43:13;;;;;;;31.23;29.33;;;;;;;5.79;100.00;101298.81;5025401;28;21092;-69
2024/03/07 06:45:41;;;;;;;29.95;28.17;;;;;;;5.82;100.00;101304.56;5030281;28;20087;-69
2024/03/07 06:48:09;;;;;;;29.00;27.30;;;;;;;6.05;100.00;101310.13;5020166;28;20052;-69
2024/03/07 06:50:38;;;;;;;32.38;30.35;;;;;;;5.90;100.00;101301.97;5024096;28;20118;-69
2024/03/07 06:53:06;;;;;;;29.67;27.83;;;;;;;6.52;100.00;101303.41;5026290;28;20056;-69
2024/03/07 06:55:34;;;;;;;29.20;27.60;;;;;;;6.70;100.00;101311.16;5026714;28;20569;-69
2024/03/07 06:58:04;;;;;;;34.70;32.63;;;;;;;6.20;100.00;101310.28;5026759;28;20045;-70
2024/03/07 07:00:35;;;;;;;34.15;32.05;;;;;;;6.28;100.00;101315.56;5029000;28;20060;-70
2024/03/07 07:03:04;;;;;;;29.15;27.50;;;;;;;7.25;100.00;101321.78;5023287;28;20045;-70
2024/03/07 07:05:31;;;;;;;29.92;28.25;;;;;;;6.48;100.00;101316.09;5027720;28;20165;-70
2024/03/07 07:08:00;;;;;;;34.67;32.78;;;;;;;6.69;100.00;101314.75;5024410;28;20060;-70
2024/03/07 07:10:27;;;;;;;31.77;29.98;;;;;;;6.64;100.00;101325.84;5028057;28;20060;-70
2024/03/07 07:12:54;;;;;;;31.70;29.77;;;;;;;6.82;100.00;101321.19;5029627;28;20045;-70
2024/03/07 07:15:21;;;;;;;33.05;31.02;;;;;;;7.07;100.00;101329.91;5027180;28;20057;-70
2024/03/07 07:17:49;;;;;;;32.40;30.58;;;;;;;7.19;100.00;101319.81;5027386;28;20041;-70
2024/03/07 07:20:17;;;;;;;32.70;30.92;;;;;;;7.73;100.00;101317.31;5027832;28;20081;-71
2024/03/07 07:22:47;;;;;;;36.05;33.63;;;;;;;7.20;100.00;101318.00;5029779;28;20049;-69
2024/03/07 07:25:15;;;;;;;37.08;34.88;;;;;;;7.48;100.00;101324.53;5025004;28;20085;-69
2024/03/07 07:27:44;;;;;;;33.22;31.13;;;;;;;7.89;100.00;101312.94;5026945;28;20046;-68
2024/03/07 07:30:12;;;;;;;32.03;29.92;;;;;;;7.46;100.00;101312.47;5026450;28;20461;-71
2024/03/07 07:32:40;;;;;;;29.00;27.40;;;;;;;7.31;100.00;101312.34;5025967;28;20817;-69
2024/03/07 07:35:11;;;;;;;32.80;30.92;;;;;;;8.10;100.00;101309.69;5025882;28;20130;-68
2024/03/07 07:37:38;;;;;;;30.00;28.20;;;;;;;7.86;100.00;101318.59;5026023;28;20113;-70
2024/03/07 07:40:08;;;;;;;30.15;28.45;;;;;;;7.72;100.00;101312.22;5024726;28;20060;-70
2024/03/07 07:42:38;;;;;;;33.15;30.80;;;;;;;7.66;100.00;101310.25;5023806;28;20057;-68
2024/03/07 07:45:10;;;;;;;30.33;28.52;;;;;;;7.68;100.00;101314.34;5026785;28;20049;-71
2024/03/07 07:47:40;;;;;;;31.95;30.35;;;;;;;7.93;100.00;101304.50;5023695;28;20046;-68
2024/03/07 07:50:12;;;;;;;31.95;29.90;;;;;;;8.04;100.00;101304.09;5023855;28;20499;-68
2024/03/07 07:52:41;;;;;;;30.42;28.80;;;;;;;8.36;100.00;101304.06;5025175;28;20052;-68
2024/03/07 07:55:14;;;;;;;37.45;35.25;;;;;;;8.19;100.00;101309.44;5024742;28;20140;-68
2024/03/07 07:57:44;;;;;;;33.63;31.52;;;;;;;8.26;100.00;101313.06;5023172;28;20045;-68
2024/03/07 08:00:21;;;;;;;35.90;33.70;;;;;;;8.31;100.00;101311.69;5023024;28;20099;-68
2024/03/07 08:02:51;;;;;;;34.28;32.38;;;;;;;8.34;100.00;101309.50;5019637;28;20049;-68
2024/03/07 08:05:19;;;;;;;32.70;30.45;;;;;;;8.47;100.00;101314.25;5022231;28;20182;-68
2024/03/07 08:07:47;;;;;;;30.92;29.13;;;;;;;8.37;100.00;101303.88;5015062;28;20057;-68
2024/03/07 08:10:14;;;;;;;33.70;31.77;;;;;;;8.60;100.00;101314.47;5021729;28;20480;-69
2024/03/07 08:12:43;;;;;;;34.08;32.08;;;;;;;8.99;100.00;101310.81;5021705;28;20056;-68
2024/03/07 08:15:13;;;;;;;34.90;32.90;;;;;;;8.94;100.00;101298.09;5024854;28;20701;-68
2024/03/07 08:17:42;;;;;;;39.45;37.15;;;;;;;8.90;100.00;101312.72;5022562;28;20049;-68
2024/03/07 08:20:11;;;;;;;41.65;39.35;;;;;;;9.08;100.00;101311.56;5021977;28;20050;-68
2024/03/07 08:22:40;;;;;;;39.72;36.90;;;;;;;9.24;100.00;101315.88;5020347;28;20057;-78
2024/03/07 08:25:09;;;;;;;31.85;29.92;;;;;;;9.11;100.00;101306.72;5022782;28;20148;-68
2024/03/07 08:27:37;;;;;;;31.02;29.20;;;;;;;9.49;100.00;101303.16;5023841;28;20053;-68
2024/03/07 08:30:07;;;;;;;46.75;44.22;;;;;;;9.67;100.00;101308.88;5023965;28;20049;-68
2024/03/07 08:32:36;;;;;;;34.08;31.98;;;;;;;9.46;100.00;101303.53;5025396;28;20046;-68
2024/03/07 08:35:06;;;;;;;33.17;31.08;;;;;;;9.69;100.00;101321.97;5023590;28;20111;-68
2024/03/07 08:37:35;;;;;;;30.33;28.38;;;;;;;9.38;100.00;101313.22;5024921;28;20049;-69
2024/03/07 08:40:04;;;;;;;29.25;27.35;;;;;;;9.57;100.00;101318.97;5021995;28;20406;-68
2024/03/07 08:42:32;;;;;;;29.27;27.38;;;;;;;9.01;100.00;101315.94;5023921;28;20049;-70
2024/03/07 08:44:59;;;;;;;30.50;28.60;;;;;;;9.33;100.00;101320.91;5025649;28;20501;-70
2024/03/07 08:47:28;;;;;;;35.17;32.75;;;;;;;9.09;100.00;101327.28;5023917;28;20042;-71
2024/03/07 08:49:55;;;;;;;32.22;30.23;;;;;;;9.44;100.00;101318.78;5025610;28;20050;-71
2024/03/07 08:52:22;;;;;;;31.35;28.85;;;;;;;9.64;100.00;101320.69;5028428;28;20111;-71
2024/03/07 08:54:49;;;;;;;29.40;27.45;;;;;;;9.42;100.00;101318.16;5025815;28;20063;-71
2024/03/07 08:57:18;;;;;;;29.60;27.17;;;;;;;9.83;100.00;101319.31;5022653;28;20102;-71
2024/03/07 08:59:45;;;;;;;29.27;27.33;;;;;;;9.90;100.00;101327.34;5016161;28;20060;-71
2024/03/07 09:02:12;;;;;;;32.08;30.17;;;;;;;9.42;100.00;101321.63;5016873;28;20041;-71
2024/03/07 09:04:41;;;;;;;36.55;34.45;;;;;;;9.62;100.00;101319.22;5027398;28;20056;-71
2024/03/07 09:07:08;;;;;;;35.10;33.00;;;;;;;9.94;100.00;101320.63;5029590;28;20497;-71
2024/03/07 09:09:43;;;;;;;29.50;27.50;;;;;;;9.83;100.00;101329.06;5029010;28;20049;-71
2024/03/07 09:12:10;;;;;;;39.05;36.75;;;;;;;9.93;100.00;101324.31;5024963;28;20136;-71
2024/03/07 09:14:37;;;;;;;41.17;38.78;;;;;;;10.00;100.00;101311.94;5027905;28;20418;-71
2024/03/07 09:17:06;;;;;;;49.30;46.60;;;;;;;10.02;100.00;101328.50;5024854;28;20052;-71
2024/03/07 09:19:33;;;;;;;40.83;38.63;;;;;;;10.13;100.00;101327.16;5024771;28;20443;-71
2024/03/07 09:22:11;;;;;;;39.88;37.38;;;;;;;10.06;100.00;101316.47;5025536;28;20056;-71
2024/03/07 09:24:38;;;;;;;43.30;40.90;;;;;;;10.23;100.00;101309.13;5021371;28;20045;-71
2024/03/07 09:27:05;;;;;;;29.67;27.98;;;;;;;10.52;100.00;101323.28;5027959;28;20107;-71
2024/03/07 09:29:32;;;;;;;36.15;34.10;;;;;;;10.24;100.00;101316.06;5028390;28;20061;-71
2024/03/07 09:32:02;;;;;;;44.80;42.38;;;;;;;10.40;100.00;101306.22;5028847;28;20055;-71
2024/03/07 09:34:30;;;;;;;49.63;46.88;;;;;;;10.77;100.00;101313.91;5028671;28;20049;-72
2024/03/07 09:36:58;;;;;;;46.20;43.38;;;;;;;10.86;100.00;101311.94;5024226;28;20834;-71
2024/03/07 09:39:27;;;;;;;50.00;47.35;;;;;;;10.71;100.00;101312.03;5023998;28;20469;-71
2024/03/07 09:41:54;;;;;;;45.80;42.63;;;;;;;11.02;100.00;101315.31;5026741;28;20425;-71
2024/03/07 09:44:25;;;;;;;49.63;46.72;;;;;;;10.92;100.00;101318.28;5025598;28;20049;-71
2024/03/07 09:46:55;;;;;;;45.63;43.20;;;;;;;11.21;100.00;101323.41;5028755;28;20464;-71
2024/03/07 09:49:23;;;;;;;30.35;28.35;;;;;;;11.04;100.00;101318.59;5026324;28;20804;-71
2024/03/07 09:51:54;;;;;;;35.70;33.35;;;;;;;11.12;100.00;101318.44;5024076;28;20045;-72
2024/03/07 09:54:23;;;;;;;30.00;28.10;;;;;;;10.83;100.00;101312.31;5030351;28;20490;-71
2024/03/07 09:56:53;;;;;;;30.25;28.08;;;;;;;10.74;100.00;101306.34;5026581;28;20081;-71
2024/03/07 09:59:26;;;;;;;32.47;30.67;;;;;;;10.73;100.00;101317.13;5021712;28;20046;-71
2024/03/07 10:01:56;;;;;;;30.00;28.15;;;;;;;10.86;100.00;101319.91;5024984;28;20058;-71
2024/03/07 10:04:30;;;;;;;29.33;27.42;;;;;;;10.45;100.00;101314.47;5026989;28;20053;-71
2024/03/07 10:06:59;;;;;;;32.22;30.23;;;;;;;10.64;100.00;101312.97;5030157;28;20045;-71
2024/03/07 10:09:30;;;;;;;31.05;29.05;;;;;;;10.55;100.00;101318.41;5031970;28;20433;-71
2024/03/07 10:11:59;;;;;;;27.90;26.20;;;;;;;10.44;100.00;101312.78;5028734;28;20053;-71
2024/03/07 10:14:27;;;;;;;32.22;29.90;;;;;;;10.47;100.00;101318.56;5030118;28;20136;-72
2024/03/07 10:16:56;;;;;;;30.23;28.42;;;;;;;10.43;100.00;101319.13;5031006;28;20057;-71
2024/03/07 10:19:23;;;;;;;31.92;29.85;;;;;;;10.11;100.00;101312.47;5030157;28;20505;-71
2024/03/07 10:21:57;;;;;;;32.97;30.10;;;;;;;10.19;100.00;101302.53;5030936;28;20060;-71
2024/03/07 10:24:26;;;;;;;29.95;28.05;;;;;;;10.36;100.00;101307.63;5030817;28;20572;-71
2024/03/07 10:26:53;;;;;;;31.90;29.90;;;;;;;10.21;100.00;101297.84;5027654;28;20062;-70
2024/03/07 10:29:21;;;;;;;32.20;29.95;;;;;;;10.36;100.00;101305.78;5028144;28;20049;-70
2024/03/07 10:31:48;;;;;;;30.50;28.58;;;;;;;10.20;100.00;101309.50;5021862;28;20054;-69
2024/03/07 10:34:15;;;;;;;28.10;26.30;;;;;;;10.23;100.00;101300.34;5027365;28;20053;-69
2024/03/07 10:36:44;;;;;;;31.40;29.13;;;;;;;10.12;100.00;101293.69;5030167;28;20046;-69
2024/03/07 10:39:14;;;;;;;31.67;29.58;;;;;;;10.14;100.00;101301.47;5032180;28;20555;-69
2024/03/07 10:41:46;;;;;;;33.83;31.73;;;;;;;10.19;100.00;101297.22;5025423;28;20111;-69
2024/03/07 10:44:16;;;;;;;;;;;;;;;10.04;100.00;101299.09;5027331;28;20084;-70
2024/03/07 10:46:47;;;;;;;29.08;27.17;;;;;;;9.91;100.00;101301.63;5030472;28;20368;-70
2024/03/07 10:49:17;;;;;;;31.60;29.10;;;;;;;9.82;100.00;101298.25;5020290;28;20050;-70
2024/03/07 10:51:50;;;;;;;30.60;28.20;;;;;;;9.74;100.00;101303.66;5030467;28;20075;-71
2024/03/07 10:54:23;;;;;;;25.85;24.15;;;;;;;9.79;100.00;101298.63;5031202;28;20046;-70
2024/03/07 10:57:05;;;;;;;28.48;26.50;;;;;;;9.76;100.00;101302.47;5029751;28;20057;-70
2024/03/07 10:59:33;;;;;;;32.60;30.13;;;;;;;9.75;100.00;101290.22;5027635;28;20140;-71
2024/03/07 11:02:17;;;;;;;27.00;25.10;;;;;;;9.76;100.00;101301.66;5031056;28;20142;-71
2024/03/07 11:04:44;;;;;;;27.60;25.75;;;;;;;9.72;100.00;101300.38;5020060;28;20543;-71
2024/03/07 11:07:12;;;;;;;29.25;27.35;;;;;;;9.61;100.00;101293.72;5026387;28;20064;-71
2024/03/07 11:09:42;;;;;;;29.20;27.35;;;;;;;9.67;100.00;101295.63;5027904;28;20060;-71
2024/03/07 11:12:11;;;;;;;31.42;29.42;;;;;;;9.64;100.00;101307.41;5029117;28;20057;-70
2024/03/07 11:14:40;;;;;;;30.27;28.38;;;;;;;9.67;100.00;101302.75;5022972;28;20849;-69